VOZ871 YMML-YSSY
Flight info
| Callsign | VOZ871 |
|---|---|
| Flight time | 1h 1m |
| Altitude | 35000 |
| Route | DOSEL Y59 RIVET |
| Aircraft | B738/M-SAE3DGHIM1RWZ/LB1 |
Departure
| Time | 2026-05-06 08:22 |
|---|---|
| Airport | Melbourne Airport (YMML) |
Arrival
| Time | 2026-05-06 09:23 |
|---|---|
| Airport | Sydney Kingsford Smith International Airport (YSSY) |
| Time | Latitude | Longitude | Altitude | Speed | Heading |
|---|---|---|---|---|---|
| 2026-05-06 06:44 | -37.67079 | 144.84526 | 387 ft | 0 kts | 178° |
| 2026-05-06 08:09 | -37.67066 | 144.84525 | 387 ft | 3 kts | 181° |
| 2026-05-06 08:09 | -37.67046 | 144.84527 | 388 ft | 3 kts | 192° |
| 2026-05-06 08:09 | -37.67028 | 144.84535 | 388 ft | 3 kts | 213° |
| 2026-05-06 08:09 | -37.67015 | 144.84550 | 389 ft | 3 kts | 253° |
| 2026-05-06 08:10 | -37.67014 | 144.84559 | 389 ft | 0 kts | 266° |
| 2026-05-06 08:15 | -37.67014 | 144.84544 | 389 ft | 2 kts | 266° |
| 2026-05-06 08:15 | -37.67017 | 144.84492 | 388 ft | 9 kts | 262° |
| 2026-05-06 08:15 | -37.67046 | 144.84407 | 386 ft | 11 kts | 255° |
| 2026-05-06 08:16 | -37.67057 | 144.84312 | 385 ft | 11 kts | 262° |
| 2026-05-06 08:16 | -37.67084 | 144.84250 | 383 ft | 7 kts | 194° |
| 2026-05-06 08:16 | -37.67135 | 144.84257 | 382 ft | 8 kts | 171° |
| 2026-05-06 08:16 | -37.67204 | 144.84270 | 381 ft | 12 kts | 172° |
| 2026-05-06 08:17 | -37.67297 | 144.84284 | 379 ft | 14 kts | 174° |
| 2026-05-06 08:17 | -37.67390 | 144.84305 | 377 ft | 13 kts | 171° |
| 2026-05-06 08:17 | -37.67480 | 144.84322 | 375 ft | 13 kts | 171° |
| 2026-05-06 08:17 | -37.67567 | 144.84338 | 372 ft | 13 kts | 172° |
| 2026-05-06 08:18 | -37.67653 | 144.84353 | 370 ft | 12 kts | 172° |
| 2026-05-06 08:18 | -37.67740 | 144.84368 | 366 ft | 13 kts | 172° |
| 2026-05-06 08:18 | -37.67825 | 144.84330 | 362 ft | 14 kts | 222° |
| 2026-05-06 08:18 | -37.67857 | 144.84245 | 359 ft | 6 kts | 261° |
| 2026-05-06 08:19 | -37.67864 | 144.84189 | 358 ft | 6 kts | 261° |
| 2026-05-06 08:19 | -37.67871 | 144.84135 | 358 ft | 2 kts | 261° |
| 2026-05-06 08:19 | -37.67873 | 144.84115 | 357 ft | 1 kts | 262° |
| 2026-05-06 08:20 | -37.67875 | 144.84099 | 357 ft | 6 kts | 262° |
| 2026-05-06 08:21 | -37.67884 | 144.84010 | 354 ft | 8 kts | 262° |
| 2026-05-06 08:21 | -37.67866 | 144.83955 | 355 ft | 7 kts | 338° |
| 2026-05-06 08:21 | -37.67823 | 144.83958 | 356 ft | 0 kts | 351° |
| 2026-05-06 08:22 | -37.67701 | 144.83935 | 360 ft | 50 kts | 352° |
| 2026-05-06 08:22 | -37.67112 | 144.83825 | 382 ft | 118 kts | 351° |
| 2026-05-06 08:22 | -37.66109 | 144.83640 | 498 ft | 165 kts | 352° |
| 2026-05-06 08:22 | -37.65015 | 144.83437 | 1417 ft | 155 kts | 351° |
| 2026-05-06 08:23 | -37.63919 | 144.83224 | 2153 ft | 162 kts | 351° |
| 2026-05-06 08:23 | -37.62708 | 144.82983 | 2523 ft | 192 kts | 350° |
| 2026-05-06 08:23 | -37.61298 | 144.82708 | 2736 ft | 218 kts | 349° |
| 2026-05-06 08:23 | -37.59719 | 144.82413 | 2971 ft | 244 kts | 354° |
| 2026-05-06 08:24 | -37.57993 | 144.82891 | 3488 ft | 265 kts | 22° |
| 2026-05-06 08:24 | -37.56340 | 144.83915 | 4426 ft | 267 kts | 23° |
| 2026-05-06 08:24 | -37.54666 | 144.84956 | 4838 ft | 267 kts | 22° |
| 2026-05-06 08:24 | -37.53006 | 144.85984 | 4996 ft | 267 kts | 22° |
| 2026-05-06 08:25 | -37.51288 | 144.87035 | 5184 ft | 286 kts | 22° |
| 2026-05-06 08:25 | -37.49406 | 144.88177 | 5416 ft | 314 kts | 22° |
| 2026-05-06 08:25 | -37.47389 | 144.89399 | 5993 ft | 326 kts | 22° |
| 2026-05-06 08:25 | -37.45336 | 144.90646 | 6816 ft | 329 kts | 22° |
| 2026-05-06 08:26 | -37.43389 | 144.92228 | 7599 ft | 341 kts | 42° |
| 2026-05-06 08:26 | -37.41907 | 144.94587 | 8389 ft | 347 kts | 51° |
| 2026-05-06 08:26 | -37.40487 | 144.97093 | 9097 ft | 354 kts | 51° |
| 2026-05-06 08:26 | -37.39044 | 144.99637 | 9871 ft | 360 kts | 52° |
| 2026-05-06 08:27 | -37.37611 | 145.02229 | 10718 ft | 362 kts | 51° |
| 2026-05-06 08:27 | -37.36173 | 145.04870 | 11390 ft | 369 kts | 52° |
| 2026-05-06 08:27 | -37.34693 | 145.07530 | 12050 ft | 374 kts | 51° |
| 2026-05-06 08:27 | -37.33238 | 145.10152 | 13069 ft | 366 kts | 50° |
| 2026-05-06 08:28 | -37.31761 | 145.12752 | 13901 ft | 367 kts | 49° |
| 2026-05-06 08:28 | -37.30265 | 145.15371 | 14516 ft | 372 kts | 49° |
| 2026-05-06 08:28 | -37.28742 | 145.18026 | 15124 ft | 377 kts | 49° |
| 2026-05-06 08:28 | -37.27203 | 145.20719 | 15797 ft | 380 kts | 49° |
| 2026-05-06 08:29 | -37.25659 | 145.23431 | 16460 ft | 384 kts | 49° |
| 2026-05-06 08:29 | -37.24100 | 145.26170 | 17068 ft | 388 kts | 49° |
| 2026-05-06 08:29 | -37.22524 | 145.28936 | 17659 ft | 391 kts | 49° |
| 2026-05-06 08:29 | -37.20934 | 145.31726 | 18228 ft | 395 kts | 49° |
| 2026-05-06 08:30 | -37.19328 | 145.34544 | 18808 ft | 399 kts | 49° |
| 2026-05-06 08:30 | -37.17708 | 145.37381 | 19383 ft | 402 kts | 49° |
| 2026-05-06 08:30 | -37.16072 | 145.40241 | 19971 ft | 405 kts | 49° |
| 2026-05-06 08:30 | -37.14425 | 145.43115 | 20529 ft | 408 kts | 48° |
| 2026-05-06 08:31 | -37.12762 | 145.46012 | 21059 ft | 411 kts | 48° |
| 2026-05-06 08:31 | -37.11089 | 145.48930 | 21564 ft | 413 kts | 48° |
| 2026-05-06 08:31 | -37.09404 | 145.51866 | 22069 ft | 416 kts | 48° |
| 2026-05-06 08:31 | -37.07703 | 145.54821 | 22543 ft | 420 kts | 48° |
| 2026-05-06 08:32 | -37.05992 | 145.57794 | 23014 ft | 422 kts | 48° |
| 2026-05-06 08:32 | -37.04264 | 145.60794 | 23403 ft | 426 kts | 48° |
| 2026-05-06 08:32 | -37.02526 | 145.63812 | 23888 ft | 428 kts | 48° |
| 2026-05-06 08:32 | -37.00782 | 145.66838 | 24359 ft | 430 kts | 48° |
| 2026-05-06 08:33 | -36.99026 | 145.69883 | 24788 ft | 433 kts | 48° |
| 2026-05-06 08:33 | -36.97259 | 145.72942 | 25190 ft | 435 kts | 48° |
| 2026-05-06 08:33 | -36.95479 | 145.76024 | 25604 ft | 438 kts | 48° |
| 2026-05-06 08:33 | -36.93691 | 145.79113 | 25998 ft | 440 kts | 48° |
| 2026-05-06 08:34 | -36.91892 | 145.82219 | 26382 ft | 442 kts | 48° |
| 2026-05-06 08:34 | -36.88260 | 145.88479 | 27122 ft | 447 kts | 48° |
| 2026-05-06 08:34 | -36.86431 | 145.91627 | 27469 ft | 449 kts | 48° |
| 2026-05-06 08:35 | -36.84590 | 145.94796 | 27815 ft | 452 kts | 48° |
| 2026-05-06 08:35 | -36.82743 | 145.97973 | 28180 ft | 454 kts | 48° |
| 2026-05-06 08:35 | -36.80885 | 146.01164 | 28490 ft | 455 kts | 48° |
| 2026-05-06 08:35 | -36.79016 | 146.04370 | 28820 ft | 457 kts | 48° |
| 2026-05-06 08:36 | -36.77147 | 146.07574 | 29201 ft | 457 kts | 48° |
| 2026-05-06 08:36 | -36.75272 | 146.10786 | 29498 ft | 459 kts | 48° |
| 2026-05-06 08:36 | -36.73384 | 146.14015 | 29761 ft | 462 kts | 48° |
| 2026-05-06 08:36 | -36.71487 | 146.17257 | 30022 ft | 464 kts | 48° |
| 2026-05-06 08:37 | -36.69579 | 146.20513 | 30262 ft | 466 kts | 48° |
| 2026-05-06 08:37 | -36.67665 | 146.23777 | 30546 ft | 467 kts | 48° |
| 2026-05-06 08:37 | -36.65749 | 146.27044 | 30914 ft | 466 kts | 48° |
| 2026-05-06 08:37 | -36.63844 | 146.30291 | 31315 ft | 464 kts | 48° |
| 2026-05-06 08:38 | -36.61942 | 146.33529 | 31620 ft | 464 kts | 48° |
| 2026-05-06 08:38 | -36.60032 | 146.36775 | 31894 ft | 464 kts | 48° |
| 2026-05-06 08:38 | -36.58124 | 146.40013 | 32209 ft | 464 kts | 48° |
| 2026-05-06 08:38 | -36.56219 | 146.43244 | 32536 ft | 463 kts | 48° |
| 2026-05-06 08:39 | -36.54317 | 146.46469 | 32850 ft | 462 kts | 48° |
| 2026-05-06 08:39 | -36.52418 | 146.49684 | 33142 ft | 461 kts | 48° |
| 2026-05-06 08:39 | -36.50513 | 146.52904 | 33384 ft | 462 kts | 47° |
| 2026-05-06 08:39 | -36.48633 | 146.56080 | 33648 ft | 462 kts | 47° |
| 2026-05-06 08:40 | -36.46731 | 146.59290 | 33951 ft | 461 kts | 47° |
| 2026-05-06 08:40 | -36.44834 | 146.62489 | 34236 ft | 460 kts | 47° |
| 2026-05-06 08:40 | -36.42934 | 146.65690 | 34493 ft | 460 kts | 47° |
| 2026-05-06 08:40 | -36.41034 | 146.68888 | 34736 ft | 460 kts | 47° |
| 2026-05-06 08:41 | -36.39139 | 146.72076 | 35024 ft | 458 kts | 47° |
| 2026-05-06 08:41 | -36.35326 | 146.78474 | 35070 ft | 463 kts | 47° |
| 2026-05-06 08:42 | -36.31501 | 146.84889 | 35076 ft | 460 kts | 47° |
| 2026-05-06 08:42 | -36.27719 | 146.91224 | 35073 ft | 455 kts | 47° |
| 2026-05-06 08:43 | -36.23954 | 146.97510 | 35079 ft | 454 kts | 47° |
| 2026-05-06 08:43 | -36.20187 | 147.03790 | 35076 ft | 454 kts | 47° |
| 2026-05-06 08:44 | -36.16413 | 147.10069 | 35078 ft | 455 kts | 47° |
| 2026-05-06 08:44 | -36.12629 | 147.16350 | 35086 ft | 456 kts | 47° |
| 2026-05-06 08:45 | -36.08842 | 147.22631 | 35091 ft | 456 kts | 47° |
| 2026-05-06 08:45 | -36.05043 | 147.28922 | 35095 ft | 457 kts | 47° |
| 2026-05-06 08:46 | -36.01234 | 147.35219 | 35096 ft | 457 kts | 47° |
| 2026-05-06 08:46 | -35.97418 | 147.41515 | 35086 ft | 458 kts | 48° |
| 2026-05-06 08:47 | -35.93592 | 147.47816 | 35091 ft | 458 kts | 48° |
| 2026-05-06 08:47 | -35.89764 | 147.54112 | 35093 ft | 458 kts | 48° |
| 2026-05-06 08:48 | -35.85937 | 147.60396 | 35103 ft | 458 kts | 48° |
| 2026-05-06 08:48 | -35.82753 | 147.65611 | 35102 ft | 458 kts | 47° |
| 2026-05-06 08:49 | -35.78269 | 147.72932 | 35104 ft | 458 kts | 47° |
| 2026-05-06 08:49 | -35.75081 | 147.78131 | 35099 ft | 457 kts | 47° |
| 2026-05-06 08:50 | -35.71252 | 147.84369 | 35097 ft | 456 kts | 47° |
| 2026-05-06 08:50 | -35.67423 | 147.90595 | 35102 ft | 456 kts | 47° |
| 2026-05-06 08:51 | -35.63598 | 147.96804 | 35104 ft | 455 kts | 47° |
| 2026-05-06 08:51 | -35.59773 | 148.03003 | 35106 ft | 455 kts | 47° |
| 2026-05-06 08:52 | -35.55944 | 148.09198 | 35102 ft | 455 kts | 47° |
| 2026-05-06 08:52 | -35.52111 | 148.15386 | 35099 ft | 455 kts | 47° |
| 2026-05-06 08:53 | -35.48278 | 148.21566 | 35107 ft | 455 kts | 47° |
| 2026-05-06 08:53 | -35.44439 | 148.27744 | 35108 ft | 455 kts | 47° |
| 2026-05-06 08:54 | -35.40618 | 148.33876 | 35102 ft | 457 kts | 47° |
| 2026-05-06 08:54 | -35.36741 | 148.40073 | 35103 ft | 458 kts | 47° |
| 2026-05-06 08:55 | -35.32856 | 148.46276 | 35102 ft | 459 kts | 47° |
| 2026-05-06 08:55 | -35.28966 | 148.52481 | 35098 ft | 460 kts | 47° |
| 2026-05-06 08:56 | -35.25060 | 148.58700 | 35102 ft | 461 kts | 47° |
| 2026-05-06 08:56 | -35.21144 | 148.64922 | 35097 ft | 461 kts | 47° |
| 2026-05-06 08:57 | -35.17226 | 148.71136 | 35107 ft | 462 kts | 47° |
| 2026-05-06 08:57 | -35.13298 | 148.77357 | 35103 ft | 463 kts | 47° |
| 2026-05-06 08:58 | -35.09357 | 148.83589 | 35097 ft | 463 kts | 47° |
| 2026-05-06 08:58 | -35.05415 | 148.89809 | 35101 ft | 463 kts | 47° |
| 2026-05-06 08:59 | -35.01473 | 148.96019 | 35104 ft | 463 kts | 47° |
| 2026-05-06 08:59 | -34.97553 | 149.02181 | 35100 ft | 463 kts | 47° |
| 2026-05-06 09:00 | -34.93608 | 149.08375 | 35102 ft | 462 kts | 47° |
| 2026-05-06 09:00 | -34.89650 | 149.14574 | 34776 ft | 468 kts | 47° |
| 2026-05-06 09:00 | -34.87646 | 149.17708 | 34255 ft | 468 kts | 47° |
| 2026-05-06 09:01 | -34.85650 | 149.20829 | 33647 ft | 467 kts | 47° |
| 2026-05-06 09:01 | -34.83655 | 149.23949 | 33029 ft | 467 kts | 47° |
| 2026-05-06 09:01 | -34.81656 | 149.27071 | 32392 ft | 467 kts | 48° |
| 2026-05-06 09:01 | -34.79657 | 149.30190 | 31736 ft | 468 kts | 48° |
| 2026-05-06 09:02 | -34.77651 | 149.33317 | 31072 ft | 469 kts | 48° |
| 2026-05-06 09:02 | -34.75642 | 149.36443 | 30402 ft | 469 kts | 48° |
| 2026-05-06 09:02 | -34.73700 | 149.39616 | 29923 ft | 466 kts | 54° |
| 2026-05-06 09:02 | -34.72100 | 149.43037 | 29430 ft | 464 kts | 59° |
| 2026-05-06 09:03 | -34.70615 | 149.46494 | 28927 ft | 460 kts | 60° |
| 2026-05-06 09:03 | -34.69156 | 149.49941 | 28427 ft | 456 kts | 60° |
| 2026-05-06 09:03 | -34.67709 | 149.53346 | 27934 ft | 452 kts | 60° |
| 2026-05-06 09:03 | -34.66261 | 149.56718 | 27434 ft | 448 kts | 59° |
| 2026-05-06 09:04 | -34.64814 | 149.60053 | 26943 ft | 445 kts | 59° |
| 2026-05-06 09:04 | -34.63374 | 149.63355 | 26457 ft | 441 kts | 59° |
| 2026-05-06 09:04 | -34.61937 | 149.66634 | 25976 ft | 437 kts | 59° |
| 2026-05-06 09:04 | -34.60511 | 149.69884 | 25491 ft | 434 kts | 59° |
| 2026-05-06 09:05 | -34.59097 | 149.73100 | 25011 ft | 431 kts | 59° |
| 2026-05-06 09:05 | -34.57690 | 149.76298 | 24539 ft | 428 kts | 60° |
| 2026-05-06 09:05 | -34.56295 | 149.79469 | 24061 ft | 425 kts | 60° |
| 2026-05-06 09:05 | -34.54909 | 149.82617 | 23589 ft | 422 kts | 59° |
| 2026-05-06 09:06 | -34.53532 | 149.85745 | 23113 ft | 419 kts | 60° |
| 2026-05-06 09:06 | -34.52163 | 149.88851 | 22644 ft | 416 kts | 60° |
| 2026-05-06 09:06 | -34.50799 | 149.91941 | 22176 ft | 413 kts | 59° |
| 2026-05-06 09:06 | -34.49447 | 149.95002 | 21716 ft | 411 kts | 59° |
| 2026-05-06 09:07 | -34.48099 | 149.98049 | 21242 ft | 409 kts | 59° |
| 2026-05-06 09:07 | -34.46762 | 150.01070 | 20774 ft | 406 kts | 59° |
| 2026-05-06 09:07 | -34.45451 | 150.04032 | 20328 ft | 403 kts | 59° |
| 2026-05-06 09:07 | -34.44128 | 150.07017 | 19885 ft | 400 kts | 59° |
| 2026-05-06 09:08 | -34.42815 | 150.09977 | 19411 ft | 397 kts | 59° |
| 2026-05-06 09:08 | -34.41512 | 150.12912 | 18977 ft | 394 kts | 59° |
| 2026-05-06 09:08 | -34.40216 | 150.15831 | 18517 ft | 392 kts | 59° |
| 2026-05-06 09:08 | -34.38931 | 150.18725 | 18073 ft | 389 kts | 59° |
| 2026-05-06 09:09 | -34.37652 | 150.21600 | 17632 ft | 386 kts | 59° |
| 2026-05-06 09:09 | -34.36381 | 150.24455 | 17187 ft | 384 kts | 59° |
| 2026-05-06 09:09 | -34.35118 | 150.27289 | 16744 ft | 381 kts | 59° |
| 2026-05-06 09:09 | -34.33863 | 150.30103 | 16304 ft | 379 kts | 59° |
| 2026-05-06 09:10 | -34.32617 | 150.32896 | 15869 ft | 376 kts | 59° |
| 2026-05-06 09:10 | -34.31389 | 150.35679 | 15424 ft | 374 kts | 62° |
| 2026-05-06 09:10 | -34.30530 | 150.38647 | 14952 ft | 375 kts | 76° |
| 2026-05-06 09:10 | -34.30033 | 150.41758 | 14206 ft | 381 kts | 78° |
| 2026-05-06 09:11 | -34.29552 | 150.44977 | 13113 ft | 397 kts | 78° |
| 2026-05-06 09:11 | -34.29061 | 150.48294 | 12267 ft | 403 kts | 78° |
| 2026-05-06 09:11 | -34.28566 | 150.51614 | 11693 ft | 399 kts | 78° |
| 2026-05-06 09:11 | -34.28067 | 150.54908 | 11050 ft | 397 kts | 78° |
| 2026-05-06 09:12 | -34.27564 | 150.58190 | 10403 ft | 396 kts | 78° |
| 2026-05-06 09:12 | -34.27059 | 150.61450 | 9817 ft | 393 kts | 78° |
| 2026-05-06 09:12 | -34.26557 | 150.64679 | 9262 ft | 389 kts | 78° |
| 2026-05-06 09:12 | -34.26063 | 150.67847 | 9013 ft | 377 kts | 78° |
| 2026-05-06 09:13 | -34.25584 | 150.70919 | 8756 ft | 366 kts | 78° |
| 2026-05-06 09:13 | -34.25116 | 150.73905 | 8496 ft | 357 kts | 78° |
| 2026-05-06 09:13 | -34.24658 | 150.76816 | 8240 ft | 348 kts | 78° |
| 2026-05-06 09:13 | -34.24212 | 150.79656 | 7985 ft | 341 kts | 77° |
| 2026-05-06 09:14 | -34.23777 | 150.82399 | 7737 ft | 334 kts | 77° |
| 2026-05-06 09:14 | -34.23348 | 150.85119 | 7495 ft | 326 kts | 77° |
| 2026-05-06 09:14 | -34.22927 | 150.87789 | 7202 ft | 321 kts | 77° |
| 2026-05-06 09:14 | -34.22511 | 150.90422 | 6871 ft | 318 kts | 77° |
| 2026-05-06 09:15 | -34.22102 | 150.92998 | 6433 ft | 316 kts | 77° |
| 2026-05-06 09:15 | -34.21694 | 150.95572 | 5974 ft | 309 kts | 77° |
| 2026-05-06 09:15 | -34.21294 | 150.98086 | 5520 ft | 301 kts | 77° |
| 2026-05-06 09:15 | -34.20903 | 151.00543 | 5056 ft | 294 kts | 77° |
| 2026-05-06 09:16 | -34.20523 | 151.02942 | 4610 ft | 288 kts | 77° |
| 2026-05-06 09:16 | -34.20146 | 151.05296 | 4164 ft | 283 kts | 77° |
| 2026-05-06 09:16 | -34.19777 | 151.07607 | 3720 ft | 277 kts | 77° |
| 2026-05-06 09:16 | -34.19413 | 151.09874 | 3265 ft | 273 kts | 77° |
| 2026-05-06 09:17 | -34.19059 | 151.12090 | 3030 ft | 261 kts | 77° |
| 2026-05-06 09:17 | -34.18728 | 151.14161 | 2984 ft | 242 kts | 77° |
| 2026-05-06 09:17 | -34.18421 | 151.16080 | 2968 ft | 224 kts | 77° |
| 2026-05-06 09:17 | -34.18135 | 151.17855 | 2972 ft | 208 kts | 76° |
| 2026-05-06 09:18 | -34.17872 | 151.19509 | 2978 ft | 193 kts | 76° |
| 2026-05-06 09:18 | -34.17497 | 151.21033 | 2985 ft | 189 kts | 56° |
| 2026-05-06 09:18 | -34.16584 | 151.22113 | 2979 ft | 184 kts | 22° |
| 2026-05-06 09:18 | -34.15346 | 151.22282 | 3005 ft | 180 kts | 1° |
| 2026-05-06 09:19 | -34.14097 | 151.22253 | 2996 ft | 180 kts | 358° |
| 2026-05-06 09:19 | -34.12846 | 151.22133 | 2995 ft | 181 kts | 356° |
| 2026-05-06 09:19 | -34.11594 | 151.21954 | 2952 ft | 183 kts | 353° |
| 2026-05-06 09:19 | -34.10352 | 151.21683 | 2767 ft | 180 kts | 350° |
| 2026-05-06 09:20 | -34.09159 | 151.21380 | 2545 ft | 169 kts | 349° |
| 2026-05-06 09:20 | -34.08059 | 151.21095 | 2356 ft | 154 kts | 349° |
| 2026-05-06 09:20 | -34.07047 | 151.20831 | 2155 ft | 150 kts | 349° |
| 2026-05-06 09:20 | -34.06019 | 151.20564 | 1945 ft | 151 kts | 349° |
| 2026-05-06 09:21 | -34.04990 | 151.20296 | 1733 ft | 151 kts | 349° |
| 2026-05-06 09:21 | -34.03961 | 151.20028 | 1535 ft | 151 kts | 349° |
| 2026-05-06 09:21 | -34.02936 | 151.19761 | 1336 ft | 151 kts | 349° |
| 2026-05-06 09:21 | -34.01905 | 151.19493 | 1140 ft | 152 kts | 349° |
| 2026-05-06 09:22 | -34.00874 | 151.19223 | 933 ft | 151 kts | 349° |
| 2026-05-06 09:22 | -33.99856 | 151.18958 | 730 ft | 148 kts | 349° |
| 2026-05-06 09:22 | -33.98850 | 151.18695 | 526 ft | 150 kts | 348° |
| 2026-05-06 09:22 | -33.97834 | 151.18435 | 336 ft | 149 kts | 348° |
| 2026-05-06 09:23 | -33.96821 | 151.18166 | 156 ft | 149 kts | 349° |
| 2026-05-06 09:23 | -33.95818 | 151.17908 | 28 ft | 142 kts | 348° |
| 2026-05-06 09:23 | -33.95054 | 151.17710 | 27 ft | 81 kts | 347° |
| 2026-05-06 09:23 | -33.94696 | 151.17643 | 28 ft | 45 kts | 1° |
| 2026-05-06 09:24 | -33.94457 | 151.17704 | 29 ft | 26 kts | 19° |
| 2026-05-06 09:24 | -33.94306 | 151.17727 | 29 ft | 20 kts | 346° |
| 2026-05-06 09:24 | -33.94173 | 151.17687 | 28 ft | 19 kts | 344° |
| 2026-05-06 09:24 | -33.94044 | 151.17649 | 27 ft | 19 kts | 347° |
| 2026-05-06 09:25 | -33.93919 | 151.17620 | 28 ft | 18 kts | 351° |
| 2026-05-06 09:25 | -33.93869 | 151.17656 | 28 ft | 9 kts | 73° |
| 2026-05-06 09:25 | -33.93851 | 151.17732 | 29 ft | 11 kts | 74° |
| 2026-05-06 09:25 | -33.93828 | 151.17831 | 29 ft | 13 kts | 74° |
| 2026-05-06 09:26 | -33.93804 | 151.17931 | 29 ft | 12 kts | 73° |
| 2026-05-06 09:26 | -33.93782 | 151.18019 | 29 ft | 10 kts | 74° |
| 2026-05-06 09:26 | -33.93736 | 151.18064 | 29 ft | 9 kts | 355° |
| 2026-05-06 09:26 | -33.93673 | 151.18050 | 29 ft | 9 kts | 356° |
| 2026-05-06 09:27 | -33.93610 | 151.18053 | 29 ft | 9 kts | 4° |
| 2026-05-06 09:27 | -33.93578 | 151.18058 | 29 ft | 2 kts | 9° |
| 2026-05-06 09:27 | -33.93561 | 151.18047 | 29 ft | 3 kts | 297° |
| 2026-05-06 09:27 | -33.93559 | 151.18017 | 29 ft | 4 kts | 278° |
| 2026-05-06 09:28 | -33.93556 | 151.17993 | 29 ft | 0 kts | 279° |
| 2026-05-06 09:28 | -33.93556 | 151.17990 | 29 ft | 1 kts | 279° |
| 2026-05-06 09:28 | -33.93555 | 151.17989 | 29 ft | 0 kts | 279° |